Austin, TX (78763)

10:13 AM CDT on August 29, 2014 (GMT -0500)
West Austin | Change Station
CLOSE
Current Station
Personal Weather Station
Location: Austin, TX
Elevation: 617 ft
Nearby Weather Stations

Elev 617 ft 30.29 °N, 97.75 °W | Updated 14 minutes ago

Scattered Clouds
Scattered Clouds
79.7 °F
Feels Like 85 °F
N
0.0
Wind Variable Wind from South

Today
High -- | Low -- °F
--% Chance of Precip.
Yesterday
High -- | Low -- °F
Precip. -- in
7:06 AM 7:57 PM
Waxing Crescent, 15% visible
Pressure 29.92 in
Visibility 10.0 miles
Clouds Scattered Clouds 1500 ft
Heat Index 85 °F
Dew Point 76 °F
Humidity 90%
Rainfall 0.09 in
Snow Depth Not available.
UV 3 out of 12
Pollen 7.30 out of 12
Ozone Good
PM2.5 Good
Flu Activity Not available.
SPECI KATT 291459Z AUTO VRB05KT 10SM SCT015 29/23 A2992 RMK AO2 T02890228

More Conditions Fewer Conditions

Pressure 29.92 in
Visibility 10.0 miles
Clouds Scattered Clouds 1500 ft
Heat Index 85 °F
Dew Point 76 °F
Humidity 90%
Rainfall 0.09 in
Snow Depth Not available.
UV 3 out of 12
Pollen 7.30 out of 12
Ozone Good
PM2.5 Good
Flu Activity Not available.
SPECI KATT 291459Z AUTO VRB05KT 10SM SCT015 29/23 A2992 RMK AO2 T02890228

More Conditions Fewer Conditions

Nowcast | as of 9:05 am CDT on August 29, 2014

Scattered showers will continue across portions of south central Texas through 11 am CDT. Most of the rain will be along and north of Highway 71. Rainfall amounts will be mainly less than 1/10 inch...but isolated higher amounts up to 1/4 inch are possible. These showers will move to the northwest around 10 mph. Rain chances will increase along the I-35 corridor toward midday.

×

10-Day Weather Forecast

Almanac

Astronomy

Aug. 29, 2014 Rise Set
Actual Time 7:06 AM CDT 7:57 PM CDT
Civil Twilight 6:41 AM CDT 8:21 PM CDT
Nautical Twilight 6:12 AM CDT 8:50 PM CDT
Astronomical Twilight 5:42 AM CDT 9:20 PM CDT
Moon 10:38 AM CDT 10:16 PM CDT
Length of Visible Light 13h 40m
Length of Day
12h 51m
Tomorrow will be 1m 43s shorter.
Waxing Crescent, 15% of the Moon is Illuminated
Today
Waxing Crescent
Sep 2
First Quarter
Sep 8
Full
Sep 15
Last Quarter
Sep 24
New

Today's Extremes

State Highs State Lows

Community

WunderPhotos

Upload Photos

1,748,265 photos uploaded!

Nearby

Air Quality

  Air Quality AQ Index Pollutant
Yesterday Good
OZONE
Yesterday Good
PM2.5
Current Good
OZONE
Current Good
PM2.5
Friday Good
OZONE
Friday Good
PM10
Saturday Good
OZONE
Saturday Good
PM10
Sunday Good
OZONE
Sunday Good
PM10
Monday Good
OZONE
Monday Good
PM10
Tuesday Good
OZONE
Tuesday Good
PM10

Snow Depth

Station Depth Elevation
No new snow has been reported.

Earthquake Activity

City Distance Mag. Time & Date
No recent earthquake activity has been reported nearby.
Minimum magnitude displayed is 2.5.

Coastal Water Temperatures

Place Temperature
No Stations Reporting

Nearby Weather Stations